Observations for NASHVILLE METRO, TN (BNA)

KBNA 142353Z 33005KT 10SM FEW037 SCT250 01/M06 A3008 RMK AO2 SLP188 T00111061 10044 20011 53011 
KBNA 142253Z 34007KT 10SM BKN170 02/M06 A3005 RMK AO2 SLP178 T00221056  
KBNA 142153Z COR 34006KT 10SM BKN038 BKN180 03/M05 A3005 RMK AO2 SLP177 T00331050   
KBNA 142053Z 33009KT 10SM BKN035 04/M04 A3004 RMK AO2 SLP175 T00391039 53006
KBNA 141953Z 35008KT 10SM BKN032 OVC039 04/M04 A3002 RMK AO2 SLP168 T00391039   
KBNA 141853Z 01007KT 10SM OVC031 04/M03 A3002 RMK AO2 SLP166 T00441033  
KBNA 141824Z 35006KT 10SM OVC030 04/M04 A3002 RMK AO2 T00391039
KBNA 141753Z 33008KT 10SM OVC029 04/M03 A3002 RMK AO2 SLP168 T00391033 10050 20022 50013
KBNA 141653Z 36009KT 10SM OVC027 04/M03 A3003 RMK AO2 SLP171 T00441033  
KBNA 141608Z 36009KT 10SM OVC028 04/M03 A3001 RMK AO2 T00441028
KBNA 141453Z 02009KT 10SM BKN030 BKN200 04/M02 A2999 RMK AO2 SLP155 T00391022 50010 
KBNA 141426Z 34006KT 10SM BKN028 BKN190 03/M03 A2998 RMK AO2 T00331028
KBNA 141448Z 01007KT 10SM BKN030 BKN200 04/M03 A2999 RMK AO2
KBNA 141353Z 33005KT 10SM FEW034 BKN190 BKN250 03/M02 A2996 RMK AO2 SLP147 T00331022
KBNA 141253Z 33004KT 10SM FEW030 SCT250 03/M03 A2996 RMK AO2 SLP145 T00281028   
KBNA 141153Z 34006KT 10SM SCT030 SCT250 03/M02 A2993 RMK AO2 SLP136 T00281022 10089 20028 51025 
KBNA 141125Z 33005KT 10SM BKN030 BKN250 03/M02 A2993 RMK AO2 T00331022
KBNA 141101Z 34004KT 10SM BKN029 BKN250 03/M02 A2991 RMK AO2 T00331022
KBNA 141053Z 33005KT 10SM SCT029 SCT250 03/M02 A2991 RMK AO2 SLP129 T00281022   
KBNA 140953Z 36011KT 10SM CLR 04/M01 A2988 RMK AO2 SLP120 T00441011 
KBNA 140853Z 33008KT 10SM CLR 06/M02 A2986 RMK AO2 SLP110 T00561022 53024   
KBNA 140753Z 30004KT 10SM CLR 07/M04 A2983 RMK AO2 SLP102 T00671039 
KBNA 140653Z 27004KT 10SM CLR 08/M04 A2980 RMK AO2 SLP090 T00781039 
KBNA 140553Z 26007KT 10SM CLR 09/M04 A2978 RMK AO2 SLP085 T00891044 10100 20072 401061067 53004 
KBNA 140453Z 24008KT 210V270 10SM CLR 10/M05 A2978 RMK AO2 SLP084 T01001050 
KBNA 140353Z 23008G15KT 10SM CLR 09/M06 A2977 RMK AO2 SLP081 T00941056  
KBNA 140253Z 22005KT 10SM CLR 08/M06 A2977 RMK AO2 SLP083 T00781061 53005   
KBNA 140153Z 21009KT 10SM CLR 08/M06 A2975 RMK AO2 SLP078 T00781061 
KBNA 140053Z 21008KT 10SM CLR 08/M07 A2976 RMK AO2 SLP081 T00831067 
KBNA 132353Z 21006KT 10SM SCT250 09/M08 A2976 RMK AO2 SLP079 T00891078 10106 20072 53015